Currie, Nevada
Current Conditions -  °F | °C
As of 5:53 AM on Tuesday 21 Oct 2014 (Local Time) from KELY Reporting Station
Clear Clear  
Wind Chill: 51°   Ceiling: Unl
Heat Index: 51°   Visibility: 10mi
Dew Point: 33°   Wind: 13mph
Humidity: 50%   Direction: 180°S
Pressure: 30.01"   Gusts: NA
Location:  39.5572°N, 115.033°W
Report Text: KELY 211253Z AUTO 18011KT 10SM CLR 11/01 A3001 RMK AO2 SLP085 T01060006
Loading
Personal Weather Stations






























Interactive Weather Map
Tropical Storm Tracking
New forecast layout! Learn more

10-Day Weather Forecast

Advertisements
Track Severe Weather on mobile